Time;durP1;ratioP1;P1;durP2;ratioP2;P2;SDS_P1;SDS_P2;PMS_P1;PMS_P2;Temp;Humidity;BMP_temperature;BMP_pressure;BME280_temperature;BME280_humidity;BME280_pressure;Samples;Min_cycle;Max_cycle;Signal;HPM_P1;HPM_P2
2021/11/11 00:02:19;;;;;;;14.90;10.52;;;;;;;12.55;65.08;102326.72;4970249;28;20459;-59
2021/11/11 00:04:46;;;;;;;18.05;10.50;;;;;;;12.55;65.26;102321.44;4969193;28;20054;-59
2021/11/11 00:07:13;;;;;;;20.23;11.27;;;;;;;12.52;65.19;102318.06;4970068;28;20929;-59
2021/11/11 00:09:40;;;;;;;17.38;11.10;;;;;;;12.50;65.37;102330.47;4970441;28;20062;-61
2021/11/11 00:12:08;;;;;;;17.50;11.15;;;;;;;12.47;65.51;102328.81;4970082;28;20043;-64
2021/11/11 00:14:34;;;;;;;16.25;10.65;;;;;;;12.48;65.64;102327.03;4970051;28;20038;-59
2021/11/11 00:17:02;;;;;;;14.85;10.63;;;;;;;12.51;65.40;102316.38;4970150;28;20070;-59
2021/11/11 00:19:28;;;;;;;17.75;10.63;;;;;;;12.48;65.44;102313.84;4970399;28;20053;-59
2021/11/11 00:21:55;;;;;;;16.20;10.80;;;;;;;12.46;65.55;102310.44;4969152;28;20051;-60
2021/11/11 00:24:21;;;;;;;18.40;10.50;;;;;;;12.43;65.64;102306.16;4970112;28;20051;-59
2021/11/11 00:26:48;;;;;;;16.52;10.70;;;;;;;12.40;65.47;102311.53;4970082;28;20047;-64
2021/11/11 00:29:15;;;;;;;16.17;10.60;;;;;;;12.37;65.83;102316.94;4969736;28;20097;-61
2021/11/11 00:31:42;;;;;;;17.77;10.57;;;;;;;12.36;65.75;102313.41;4970069;28;20492;-61
2021/11/11 00:34:08;;;;;;;15.18;10.63;;;;;;;12.37;65.68;102327.47;4970001;28;20109;-59
2021/11/11 00:36:35;;;;;;;18.30;11.40;;;;;;;12.33;65.70;102326.72;4970398;28;20110;-59
2021/11/11 00:39:02;;;;;;;16.42;11.43;;;;;;;12.32;65.81;102332.88;4968514;28;20058;-63
2021/11/11 00:41:30;;;;;;;18.83;10.80;;;;;;;12.32;65.72;102335.53;4969893;28;20133;-59
2021/11/11 00:43:57;;;;;;;19.50;11.45;;;;;;;12.30;65.81;102337.34;4970276;28;20062;-59
2021/11/11 00:46:24;;;;;;;16.45;11.63;;;;;;;12.30;65.91;102334.72;4969820;28;20054;-63
2021/11/11 00:48:51;;;;;;;20.92;11.70;;;;;;;12.27;65.86;102328.72;4969640;28;20105;-59
2021/11/11 00:51:17;;;;;;;20.13;12.85;;;;;;;12.25;65.86;102337.53;4970034;28;20058;-63
2021/11/11 00:53:44;;;;;;;17.67;11.60;;;;;;;12.27;65.91;102326.09;4973597;28;20042;-59
2021/11/11 00:56:12;;;;;;;16.90;11.85;;;;;;;12.27;65.93;102315.56;4970264;28;20110;-59
2021/11/11 00:58:38;;;;;;;21.35;12.32;;;;;;;12.28;66.04;102319.91;4973476;28;20043;-58
2021/11/11 01:01:05;;;;;;;20.00;13.13;;;;;;;12.29;65.92;102325.13;4973751;28;20388;-58
2021/11/11 01:03:40;;;;;;;15.43;11.55;;;;;;;12.29;65.96;102318.97;4973510;28;20047;-59
2021/11/11 01:06:09;;;;;;;17.30;11.40;;;;;;;12.28;66.17;102317.25;4973568;28;20514;-59
2021/11/11 01:08:36;;;;;;;18.45;11.98;;;;;;;12.26;66.07;102325.22;4959367;28;20051;-60
2021/11/11 01:11:05;;;;;;;18.05;11.60;;;;;;;12.22;66.18;102329.75;4972446;28;20503;-59
2021/11/11 01:13:33;;;;;;;16.38;11.10;;;;;;;12.25;66.29;102326.13;4973302;28;20051;-59
2021/11/11 01:16:02;;;;;;;17.48;11.93;;;;;;;12.25;66.24;102320.88;4973254;28;20043;-60
2021/11/11 01:18:29;;;;;;;16.65;11.98;;;;;;;12.26;66.28;102319.97;4973479;28;20081;-59
2021/11/11 01:20:56;;;;;;;19.65;12.15;;;;;;;12.29;66.29;102326.88;4973054;28;20051;-59
2021/11/11 01:23:23;;;;;;;21.98;13.13;;;;;;;12.24;66.58;102317.41;4973360;28;20509;-59
2021/11/11 01:25:50;;;;;;;16.15;12.57;;;;;;;12.27;66.45;102321.69;4973138;28;20050;-59
2021/11/11 01:28:17;;;;;;;17.85;12.85;;;;;;;12.30;66.57;102324.19;4971051;28;20051;-59
2021/11/11 01:30:44;;;;;;;21.73;13.30;;;;;;;12.31;66.45;102319.78;4972884;28;20054;-59
2021/11/11 01:33:13;;;;;;;21.85;12.85;;;;;;;12.30;66.62;102320.72;4973061;28;20047;-59
2021/11/11 01:35:41;;;;;;;20.33;12.90;;;;;;;12.30;66.67;102318.06;4972929;28;20058;-64
2021/11/11 01:38:08;;;;;;;21.30;13.18;;;;;;;12.30;66.82;102321.56;4972424;28;20063;-59
2021/11/11 01:40:35;;;;;;;19.60;12.00;;;;;;;12.30;66.85;102308.38;4963557;28;20757;-59
2021/11/11 01:43:06;;;;;;;19.65;12.30;;;;;;;12.31;66.81;102304.00;4968830;28;20055;-59
2021/11/11 01:45:36;;;;;;;18.77;12.68;;;;;;;12.32;66.82;102309.19;4971882;28;20043;-59
2021/11/11 01:48:05;;;;;;;20.88;12.13;;;;;;;12.31;66.81;102304.84;4972451;28;20054;-59
2021/11/11 01:50:31;;;;;;;18.10;12.48;;;;;;;12.30;66.84;102304.91;4972370;28;20101;-59
2021/11/11 01:52:59;;;;;;;17.08;12.57;;;;;;;12.31;67.05;102304.84;4972495;28;20424;-59
2021/11/11 01:55:28;;;;;;;19.73;12.43;;;;;;;12.32;67.04;102298.66;4972775;28;20050;-59
2021/11/11 01:57:55;;;;;;;18.92;12.43;;;;;;;12.33;67.03;102310.91;4972652;28;20051;-59
2021/11/11 02:00:42;;;;;;;16.05;11.70;;;;;;;12.33;66.98;102313.56;4972322;28;20075;-59
2021/11/11 02:03:10;;;;;;;17.10;12.00;;;;;;;12.35;66.86;102319.59;4971037;28;20050;-59
2021/11/11 02:05:37;;;;;;;16.50;11.68;;;;;;;12.36;66.98;102310.78;4972251;28;20046;-59
2021/11/11 02:08:04;;;;;;;22.05;12.82;;;;;;;12.37;67.15;102304.63;4972288;28;20054;-63
2021/11/11 02:10:33;;;;;;;18.98;12.70;;;;;;;12.37;67.21;102301.97;4972281;28;20046;-59
2021/11/11 02:13:01;;;;;;;21.63;13.48;;;;;;;12.38;67.19;102295.81;4972592;28;20393;-64
2021/11/11 02:15:28;;;;;;;18.45;12.43;;;;;;;12.40;67.37;102291.34;4972400;28;20050;-59
2021/11/11 02:17:55;;;;;;;19.63;12.80;;;;;;;12.39;67.24;102287.00;4970597;28;20039;-59
2021/11/11 02:20:25;;;;;;;18.80;11.00;;;;;;;12.41;67.22;102279.88;4972308;28;20050;-59
2021/11/11 02:22:53;;;;;;;16.80;11.50;;;;;;;12.44;67.23;102278.03;4971906;28;20082;-64
2021/11/11 02:25:23;;;;;;;16.38;10.80;;;;;;;12.45;67.18;102275.34;4972366;28;20105;-59
2021/11/11 02:27:52;;;;;;;15.50;10.13;;;;;;;12.45;67.14;102267.44;4971884;28;20046;-64
2021/11/11 02:30:22;;;;;;;19.67;10.63;;;;;;;12.44;66.92;102267.50;4971742;28;20511;-59
2021/11/11 02:32:49;;;;;;;21.65;10.63;;;;;;;12.46;66.84;102257.78;4970677;28;20126;-59
2021/11/11 02:35:17;;;;;;;17.85;10.38;;;;;;;12.47;66.55;102262.13;4970606;28;20038;-59
2021/11/11 02:37:45;;;;;;;16.73;10.02;;;;;;;12.47;66.68;102251.59;4971136;28;20070;-59
2021/11/11 02:40:15;;;;;;;16.55;9.85;;;;;;;12.48;66.61;102254.19;4971767;28;20039;-63
2021/11/11 02:42:43;;;;;;;14.57;8.77;;;;;;;12.48;66.42;102251.53;4971812;28;20455;-59
2021/11/11 02:45:13;;;;;;;14.35;8.73;;;;;;;12.49;66.15;102247.97;4971845;28;20050;-59
2021/11/11 02:47:41;;;;;;;19.67;9.23;;;;;;;12.49;66.23;102253.22;4970953;28;20054;-59
2021/11/11 02:50:08;;;;;;;13.48;9.40;;;;;;;12.51;65.84;102248.78;4971668;28;20456;-59
2021/11/11 02:52:35;;;;;;;19.25;9.00;;;;;;;12.51;65.73;102250.56;4971507;28;20392;-59
2021/11/11 02:55:02;;;;;;;16.38;9.55;;;;;;;12.51;65.86;102251.41;4971316;28;20059;-64
2021/11/11 02:57:32;;;;;;;16.30;9.52;;;;;;;12.53;65.88;102240.81;4971808;28;20051;-59
2021/11/11 03:00:07;;;;;;;13.85;8.82;;;;;;;12.53;65.70;102235.53;4971559;28;20094;-60
2021/11/11 03:02:38;;;;;;;17.13;9.43;;;;;;;12.53;65.77;102232.91;4971353;28;20039;-58
2021/11/11 03:05:07;;;;;;;14.13;8.60;;;;;;;12.55;65.54;102233.72;4970141;28;20053;-58
2021/11/11 03:07:35;;;;;;;12.95;8.80;;;;;;;12.55;65.74;102241.63;4971026;28;20051;-59
2021/11/11 03:10:03;;;;;;;13.77;8.77;;;;;;;12.56;65.42;102235.44;4970974;28;20492;-59
2021/11/11 03:12:29;;;;;;;11.52;8.00;;;;;;;12.55;65.49;102237.19;4971284;28;20047;-59
2021/11/11 03:14:56;;;;;;;12.93;8.43;;;;;;;12.56;65.39;102219.63;4970999;28;20058;-59
2021/11/11 03:17:24;;;;;;;18.38;8.85;;;;;;;12.56;65.53;102222.25;4970982;28;20047;-59
2021/11/11 03:19:52;;;;;;;15.05;8.75;;;;;;;12.57;65.41;102229.25;4970873;28;20055;-59
2021/11/11 03:22:20;;;;;;;11.07;7.75;;;;;;;12.58;65.63;102228.31;4970032;28;20061;-63
2021/11/11 03:24:49;;;;;;;11.82;7.97;;;;;;;12.56;65.68;102220.47;4970827;28;20547;-59
2021/11/11 03:27:17;;;;;;;11.80;7.68;;;;;;;12.57;65.56;102218.72;4969797;28;20049;-59
2021/11/11 03:29:45;;;;;;;14.95;9.18;;;;;;;12.56;65.71;102219.63;4970487;28;20057;-59
2021/11/11 03:32:12;;;;;;;11.43;7.75;;;;;;;12.57;65.96;102218.72;4970770;28;20554;-59
2021/11/11 03:34:38;;;;;;;12.98;8.93;;;;;;;12.54;66.12;102217.06;4970767;28;20051;-59
2021/11/11 03:37:05;;;;;;;13.77;9.40;;;;;;;12.54;66.14;102210.94;4970761;28;20046;-59
2021/11/11 03:39:33;;;;;;;13.68;8.45;;;;;;;12.53;66.34;102204.81;4969286;28;20058;-59
2021/11/11 03:42:00;;;;;;;22.48;9.32;;;;;;;12.53;66.43;102210.09;4970462;28;20054;-59
2021/11/11 03:44:27;;;;;;;12.52;7.90;;;;;;;12.54;66.63;102213.56;4970758;28;20051;-59
2021/11/11 03:46:58;;;;;;;9.80;7.50;;;;;;;12.55;66.17;102216.13;4970421;28;20047;-59
2021/11/11 03:49:25;;;;;;;15.82;8.27;;;;;;;12.55;66.40;102216.13;4970791;28;20408;-59
2021/11/11 03:51:52;;;;;;;10.90;8.38;;;;;;;12.54;66.47;102222.34;4970182;28;20093;-59
2021/11/11 03:54:21;;;;;;;13.80;8.45;;;;;;;12.55;66.48;102212.66;4970488;28;20094;-59
2021/11/11 03:56:49;;;;;;;13.80;8.95;;;;;;;12.54;66.75;102206.53;4969190;28;20047;-63
2021/11/11 03:59:17;;;;;;;13.52;8.43;;;;;;;12.54;66.95;102200.41;4970628;28;20046;-59
2021/11/11 04:01:44;;;;;;;12.40;8.20;;;;;;;12.51;66.94;102216.34;4970475;28;20086;-60
2021/11/11 04:04:12;;;;;;;16.58;8.40;;;;;;;12.49;67.10;102216.38;4970398;28;20053;-59
2021/11/11 04:06:38;;;;;;;11.65;8.10;;;;;;;12.52;67.04;102207.47;4970095;28;20098;-59
2021/11/11 04:09:06;;;;;;;12.77;9.13;;;;;;;12.52;67.43;102210.13;4969941;28;20038;-59
2021/11/11 04:11:33;;;;;;;12.07;8.57;;;;;;;12.51;67.16;102204.00;4969139;28;20050;-58
2021/11/11 04:14:01;;;;;;;15.00;8.00;;;;;;;12.51;67.38;102203.16;4969869;28;20047;-59
2021/11/11 04:16:27;;;;;;;13.20;9.48;;;;;;;12.51;67.41;102201.38;4970354;28;20203;-59
2021/11/11 04:18:54;;;;;;;16.20;8.65;;;;;;;12.51;67.38;102204.00;4970222;28;20046;-59
2021/11/11 04:21:21;;;;;;;11.90;8.15;;;;;;;12.52;67.59;102208.38;4970207;28;20451;-59
2021/11/11 04:23:50;;;;;;;15.25;8.95;;;;;;;12.52;67.62;102216.25;4970193;28;20057;-59
2021/11/11 04:26:32;;;;;;;16.33;9.18;;;;;;;12.54;67.55;102213.56;4969512;28;20039;-59
2021/11/11 04:29:12;;;;;;;17.33;9.15;;;;;;;12.49;67.82;102224.28;4976400;28;20046;-60
2021/11/11 04:31:47;;;;;;;16.33;9.23;;;;;;;12.48;67.82;102222.59;4976358;28;20537;-59
2021/11/11 04:34:15;;;;;;;16.80;8.73;;;;;;;12.50;67.75;102227.78;4976514;28;20058;-59
2021/11/11 04:37:04;;;;;;;16.58;9.23;;;;;;;12.50;68.01;102220.72;4976035;28;20117;-59
2021/11/11 04:42:34;;;;;;;13.90;8.65;;;;;;;12.43;68.21;102219.28;4976635;28;20411;-59
2021/11/11 05:04:37;;;;;;;9.68;6.65;;;;;;;12.50;66.75;102152.25;4976232;28;20384;-59
2021/11/11 05:07:04;;;;;;;13.50;7.22;;;;;;;12.51;66.60;102150.50;4963257;28;20047;-59
2021/11/11 05:09:31;;;;;;;9.43;6.43;;;;;;;12.47;66.56;102156.78;4975934;28;20070;-59
2021/11/11 05:11:58;;;;;;;11.90;7.25;;;;;;;12.48;66.56;102158.50;4976126;28;20059;-59
2021/11/11 05:14:24;;;;;;;11.13;6.07;;;;;;;12.47;66.68;102173.47;4976250;28;20072;-59
2021/11/11 05:16:51;;;;;;;11.70;6.53;;;;;;;12.47;66.74;102178.75;4975163;28;20051;-59
2021/11/11 05:19:18;;;;;;;13.75;6.43;;;;;;;12.47;66.55;102175.22;4975972;28;20051;-59
2021/11/11 05:21:45;;;;;;;9.80;6.68;;;;;;;12.48;66.59;102176.94;4975692;28;20062;-63
2021/11/11 05:24:12;;;;;;;12.05;6.75;;;;;;;12.47;66.37;102173.47;4969337;28;20492;-63
2021/11/11 05:26:40;;;;;;;10.43;6.53;;;;;;;12.47;66.67;102169.97;4958074;28;20053;-59
2021/11/11 05:29:07;;;;;;;12.25;7.07;;;;;;;12.47;66.83;102172.59;4958076;28;20401;-59
2021/11/11 05:31:34;;;;;;;9.32;6.32;;;;;;;12.47;66.76;102172.59;4959518;28;20043;-59
2021/11/11 05:34:00;;;;;;;12.75;6.90;;;;;;;12.48;66.70;102174.31;4956939;28;20488;-59
2021/11/11 05:36:27;;;;;;;13.00;6.70;;;;;;;12.45;66.79;102167.41;4958257;28;20054;-59
2021/11/11 05:38:54;;;;;;;9.82;7.35;;;;;;;12.40;66.96;102164.09;4953157;28;20062;-62
2021/11/11 05:41:21;;;;;;;10.60;6.80;;;;;;;12.53;66.93;102175.84;4972105;28;20058;-59
2021/11/11 05:43:48;;;;;;;9.98;6.40;;;;;;;12.48;66.94;102174.31;4972308;28;20437;-64
2021/11/11 05:46:15;;;;;;;10.48;5.85;;;;;;;12.46;66.81;102177.00;4972406;28;20058;-60
2021/11/11 05:48:41;;;;;;;9.77;6.05;;;;;;;12.45;66.73;102180.56;4972511;28;20057;-63
2021/11/11 05:51:08;;;;;;;9.50;5.75;;;;;;;12.40;66.92;102166.72;4971047;28;20051;-59
2021/11/11 05:53:35;;;;;;;11.02;6.32;;;;;;;12.39;66.86;102157.13;4972393;28;20043;-59
2021/11/11 05:56:02;;;;;;;10.23;6.05;;;;;;;12.36;66.67;102160.72;4972640;28;20050;-63
2021/11/11 05:58:28;;;;;;;9.05;6.65;;;;;;;12.37;66.88;102162.47;4963566;28;20488;-61
2021/11/11 06:00:55;;;;;;;10.63;6.65;;;;;;;12.38;66.67;102168.59;4965496;28;20105;-62
2021/11/11 06:03:22;;;;;;;8.27;5.47;;;;;;;12.37;66.70;102165.09;4967915;28;20043;-65
2021/11/11 06:05:49;;;;;;;11.85;6.30;;;;;;;12.40;66.58;102174.63;4972207;28;20487;-61
2021/11/11 06:08:15;;;;;;;11.70;5.45;;;;;;;12.41;66.56;102173.72;4970834;28;20043;-60
2021/11/11 06:10:42;;;;;;;12.18;7.05;;;;;;;12.42;66.52;102172.81;4971559;28;20527;-61
2021/11/11 06:13:09;;;;;;;10.65;6.90;;;;;;;12.43;66.54;102184.19;4971809;28;20051;-62
2021/11/11 06:15:35;;;;;;;10.60;6.07;;;;;;;12.37;66.62;102178.25;4972426;28;20448;-62
2021/11/11 06:18:02;;;;;;;13.07;6.60;;;;;;;12.36;66.47;102176.53;4972166;28;20065;-61
2021/11/11 06:20:33;;;;;;;11.60;6.63;;;;;;;12.38;66.53;102179.97;4972163;28;20054;-60
2021/11/11 06:23:01;;;;;;;10.77;6.63;;;;;;;12.39;66.62;102186.06;4971723;28;20051;-60
2021/11/11 06:25:27;;;;;;;12.32;7.00;;;;;;;12.40;66.53;102187.78;4970895;28;20885;-61
2021/11/11 06:27:54;;;;;;;10.55;6.43;;;;;;;12.41;66.56;102187.72;4971937;28;20046;-59
2021/11/11 06:30:21;;;;;;;10.55;7.32;;;;;;;12.40;66.61;102187.78;4971906;28;20062;-61
2021/11/11 06:32:48;;;;;;;11.10;7.22;;;;;;;12.42;66.65;102191.22;4971781;28;20050;-64
2021/11/11 06:35:27;;;;;;;16.60;7.55;;;;;;;12.44;66.79;102183.28;4971750;28;20157;-61
2021/11/11 06:37:54;;;;;;;14.85;8.70;;;;;;;12.46;66.69;102184.06;4971339;28;20058;-59
2021/11/11 06:40:20;;;;;;;13.15;8.52;;;;;;;12.46;67.05;102190.19;4970860;28;20411;-62
2021/11/11 06:42:47;;;;;;;13.23;8.70;;;;;;;12.49;66.83;102199.72;4971786;28;20130;-65
2021/11/11 06:45:15;;;;;;;15.98;8.65;;;;;;;12.48;66.94;102198.88;4971927;28;20443;-61
2021/11/11 06:47:42;;;;;;;12.60;8.20;;;;;;;12.51;67.07;102198.75;4971472;28;20498;-61
2021/11/11 06:50:11;;;;;;;16.50;9.40;;;;;;;12.57;67.73;102193.22;4970269;28;20042;-65
2021/11/11 06:52:38;;;;;;;15.40;9.75;;;;;;;12.67;66.96;102196.34;4970171;28;20054;-62
2021/11/11 06:55:07;;;;;;;18.40;11.10;;;;;;;12.67;67.17;102196.34;4967934;28;20059;-61
2021/11/11 06:57:34;;;;;;;17.20;10.32;;;;;;;12.70;67.13;102203.25;4960065;28;20550;-62
2021/11/11 07:00:03;;;;;;;15.10;10.15;;;;;;;12.72;67.01;102204.91;4971103;28;20055;-62
2021/11/11 07:02:30;;;;;;;15.13;10.18;;;;;;;12.77;67.21;102199.41;4971240;28;20133;-61
2021/11/11 07:04:57;;;;;;;14.57;10.63;;;;;;;12.79;67.25;102196.75;4970970;28;20055;-61
2021/11/11 07:07:24;;;;;;;15.20;11.30;;;;;;;12.84;67.12;102208.78;4970700;28;20046;-62
2021/11/11 07:09:51;;;;;;;17.02;11.68;;;;;;;12.88;67.02;102205.09;4970819;28;20055;-61
2021/11/11 07:12:18;;;;;;;19.35;10.98;;;;;;;12.97;66.92;102203.84;4969590;28;20050;-63
2021/11/11 07:14:45;;;;;;;16.25;10.70;;;;;;;13.00;66.85;102208.13;4969065;28;20042;-61
2021/11/11 07:17:12;;;;;;;16.95;11.68;;;;;;;13.01;66.84;102209.84;4970679;28;20046;-62
2021/11/11 07:19:39;;;;;;;15.05;10.75;;;;;;;13.03;66.66;102214.13;4970062;28;20066;-61
2021/11/11 07:22:06;;;;;;;19.42;11.32;;;;;;;13.02;66.93;102215.03;4970680;28;20086;-61
2021/11/11 07:24:34;;;;;;;14.95;11.45;;;;;;;13.03;66.99;102214.13;4970796;28;20054;-64
2021/11/11 07:27:01;;;;;;;15.80;10.80;;;;;;;13.06;67.04;102218.41;4970618;28;20179;-61
2021/11/11 07:29:27;;;;;;;20.20;12.07;;;;;;;13.05;67.13;102219.31;4969450;28;20047;-61
2021/11/11 07:31:56;;;;;;;18.75;12.63;;;;;;;13.09;67.11;102217.41;4970582;28;20520;-61
2021/11/11 07:34:24;;;;;;;17.90;11.60;;;;;;;13.09;67.12;102220.03;4970494;28;20130;-62
2021/11/11 07:36:53;;;;;;;20.50;12.23;;;;;;;13.10;67.26;102219.13;4970269;28;20054;-63
2021/11/11 07:39:21;;;;;;;23.48;12.80;;;;;;;13.12;67.30;102220.78;4970470;28;20495;-62
2021/11/11 07:41:51;;;;;;;20.95;12.10;;;;;;;13.17;67.29;102221.41;4970759;28;20109;-62
2021/11/11 07:44:17;;;;;;;19.58;11.57;;;;;;;13.21;67.25;102222.16;4970563;28;20447;-62
2021/11/11 07:46:44;;;;;;;19.27;12.20;;;;;;;13.20;67.14;102218.66;4969228;28;20050;-61
2021/11/11 07:49:11;;;;;;;17.23;12.70;;;;;;;13.23;67.21;102212.41;4970093;28;20051;-62
2021/11/11 07:51:38;;;;;;;16.92;12.52;;;;;;;13.24;67.10;102214.09;4969818;28;20128;-61
2021/11/11 07:54:05;;;;;;;21.48;12.85;;;;;;;13.32;67.02;102203.19;4969752;28;20062;-61
2021/11/11 07:56:34;;;;;;;24.42;13.07;;;;;;;13.35;66.95;102213.63;4969793;28;20411;-62
2021/11/11 07:59:03;;;;;;;16.80;12.18;;;;;;;13.35;67.08;102205.72;4970487;28;20134;-61
2021/11/11 08:01:29;;;;;;;17.85;12.45;;;;;;;13.40;66.94;102214.31;4969714;28;20481;-62
2021/11/11 08:03:57;;;;;;;15.65;10.90;;;;;;;13.46;66.96;102214.03;4969198;28;20054;-63
2021/11/11 08:06:23;;;;;;;14.80;11.30;;;;;;;13.49;66.74;102208.59;4970160;28;20047;-62
2021/11/11 08:08:50;;;;;;;18.15;11.23;;;;;;;13.49;66.75;102205.97;4969857;28;20404;-61
2021/11/11 08:11:17;;;;;;;15.82;10.88;;;;;;;13.48;66.79;102206.03;4970266;28;20061;-63
2021/11/11 08:13:44;;;;;;;17.10;11.38;;;;;;;13.50;67.01;102199.78;4970489;28;20485;-62
2021/11/11 08:16:10;;;;;;;20.73;12.38;;;;;;;13.48;67.26;102198.13;4969899;28;20049;-62
2021/11/11 08:18:37;;;;;;;22.90;13.55;;;;;;;13.51;67.23;102196.22;4968832;28;20139;-61
2021/11/11 08:21:04;;;;;;;20.02;13.18;;;;;;;13.50;67.57;102191.03;4969790;28;20055;-61
2021/11/11 08:23:31;;;;;;;17.27;12.82;;;;;;;13.52;67.63;102186.50;4969916;28;20185;-62
2021/11/11 08:26:03;;;;;;;20.60;12.38;;;;;;;13.52;67.41;102179.47;4969631;28;20047;-61
2021/11/11 08:28:31;;;;;;;21.10;11.88;;;;;;;13.54;67.62;102185.50;4970306;28;20046;-62
2021/11/11 08:30:58;;;;;;;18.05;13.35;;;;;;;13.61;67.48;102194.03;4969873;28;20054;-61
2021/11/11 08:33:25;;;;;;;23.30;13.48;;;;;;;13.62;67.42;102194.88;4968793;28;20046;-61
2021/11/11 08:35:51;;;;;;;21.95;12.82;;;;;;;13.61;67.58;102196.66;4962943;28;20054;-62
2021/11/11 08:38:19;;;;;;;19.23;12.98;;;;;;;13.61;67.67;102198.41;4969378;28;20053;-61
2021/11/11 08:40:46;;;;;;;18.73;12.95;;;;;;;13.60;67.76;102194.94;4969595;28;20057;-64
2021/11/11 08:43:13;;;;;;;26.55;14.07;;;;;;;13.59;67.80;102195.03;4969780;28;20043;-62
2021/11/11 08:45:41;;;;;;;23.30;14.75;;;;;;;13.60;68.06;102184.41;4969780;28;20077;-62
2021/11/11 08:48:07;;;;;;;24.38;13.80;;;;;;;13.63;68.03;102183.41;4969725;28;20047;-62
2021/11/11 08:50:36;;;;;;;19.48;14.05;;;;;;;13.61;67.98;102187.88;4968883;28;20043;-62
2021/11/11 08:53:07;;;;;;;20.20;14.57;;;;;;;13.58;68.33;102185.41;4970048;28;20199;-63
2021/11/11 08:55:35;;;;;;;21.05;15.32;;;;;;;13.55;68.50;102181.13;4970002;28;20047;-61
2021/11/11 08:58:04;;;;;;;21.75;14.35;;;;;;;13.49;68.47;102176.13;4969950;28;20047;-61
2021/11/11 09:00:35;;;;;;;21.65;15.32;;;;;;;13.47;68.86;102177.97;4969919;28;20077;-62
2021/11/11 09:03:03;;;;;;;22.35;16.40;;;;;;;13.47;68.79;102175.31;4969586;28;20126;-61
2021/11/11 09:05:32;;;;;;;20.10;15.75;;;;;;;13.46;68.94;102171.84;4969664;28;20097;-61
2021/11/11 09:08:00;;;;;;;19.98;14.80;;;;;;;13.43;69.08;102181.66;4968524;28;20078;-61
2021/11/11 09:10:32;;;;;;;24.02;15.50;;;;;;;13.43;69.34;102179.88;4969865;28;20403;-61
2021/11/11 09:13:06;;;;;;;22.17;15.68;;;;;;;13.44;69.08;102178.94;4970940;28;20062;-61
2021/11/11 09:15:33;;;;;;;25.33;16.40;;;;;;;13.43;69.38;102176.41;4973595;28;20117;-61
2021/11/11 09:18:03;;;;;;;23.73;16.17;;;;;;;13.45;69.29;102169.28;4973392;28;20046;-62
2021/11/11 09:20:31;;;;;;;24.55;16.77;;;;;;;13.42;69.47;102175.56;4973227;28;20051;-62
2021/11/11 09:23:00;;;;;;;20.00;16.50;;;;;;;13.42;69.71;102170.28;4972593;28;20401;-62
2021/11/11 09:25:30;;;;;;;25.58;17.48;;;;;;;13.43;69.57;102164.06;4964527;28;20043;-62
2021/11/11 09:28:01;;;;;;;25.02;16.35;;;;;;;13.47;69.74;102164.78;4972624;28;20050;-61
2021/11/11 09:30:33;;;;;;;23.35;16.38;;;;;;;13.51;69.54;102161.06;4973262;28;20507;-62
2021/11/11 09:33:00;;;;;;;24.80;16.60;;;;;;;13.54;69.54;102167.06;4972700;28;20050;-62
2021/11/11 09:35:27;;;;;;;24.77;16.08;;;;;;;13.57;69.66;102150.22;4972622;28;20042;-63
2021/11/11 09:37:54;;;;;;;25.23;15.20;;;;;;;13.64;69.43;102145.53;4972307;28;20130;-62
2021/11/11 09:40:25;;;;;;;28.02;15.88;;;;;;;13.72;69.46;102132.84;4971787;28;20496;-62
2021/11/11 09:42:55;;;;;;;27.75;16.67;;;;;;;13.80;68.86;102125.41;4972492;28;20496;-62
2021/11/11 09:45:25;;;;;;;27.20;17.35;;;;;;;13.86;69.11;102121.63;4972502;28;20097;-62
2021/11/11 09:47:52;;;;;;;29.15;17.38;;;;;;;13.99;68.82;102117.47;4972301;28;20495;-62
2021/11/11 09:50:21;;;;;;;31.23;16.88;;;;;;;14.15;68.52;102109.63;4972598;28;20488;-62
2021/11/11 09:52:50;;;;;;;28.15;15.73;;;;;;;14.27;67.99;102108.16;4972465;28;20054;-62
2021/11/11 10:00:51;;;;;;;26.40;16.55;;;;;;;14.46;67.68;102121.31;4961341;28;20043;-62
2021/11/11 10:03:19;;;;;;;22.08;15.40;;;;;;;14.53;67.38;102119.19;4972239;28;20097;-62
2021/11/11 10:05:47;;;;;;;22.17;14.02;;;;;;;14.62;67.29;102124.00;4971893;28;20047;-62
2021/11/11 10:08:52;;;;;;;22.83;15.65;;;;;;;14.99;66.41;102110.66;4972033;28;20409;-64
2021/11/11 10:11:33;;;;;;;31.20;15.68;;;;;;;15.19;65.72;102107.78;4931180;29;20055;-62
2021/11/11 10:14:14;;;;;;;21.73;13.93;;;;;;;15.60;64.21;102106.44;4967966;28;20043;-61
2021/11/11 10:16:48;;;;;;;20.92;14.63;;;;;;;16.05;62.76;102103.09;4972223;28;20067;-66
2021/11/11 10:19:16;;;;;;;24.85;15.55;;;;;;;16.03;63.17;102103.19;4972012;28;20050;-63
2021/11/11 10:24:21;;;;;;;21.27;14.25;;;;;;;15.97;63.23;102087.66;4971398;28;20054;-63
2021/11/11 10:26:56;;;;;;;21.95;13.73;;;;;;;16.35;62.21;102086.34;4972004;28;20106;-63
2021/11/11 10:29:30;;;;;;;19.85;13.35;;;;;;;16.26;62.02;102080.63;4970640;28;20491;-64
2021/11/11 10:32:11;;;;;;;23.42;13.55;;;;;;;16.14;62.50;102076.94;4971550;28;20404;-63
2021/11/11 10:35:05;;;;;;;19.70;12.82;;;;;;;16.00;62.79;102085.69;4971591;28;20051;-63
2021/11/11 10:37:38;;;;;;;19.40;11.20;;;;;;;15.94;63.19;102083.38;4969887;28;20047;-63
2021/11/11 10:40:10;;;;;;;17.85;11.85;;;;;;;15.81;63.13;102072.66;4971196;28;20055;-63
2021/11/11 10:42:40;;;;;;;17.08;10.13;;;;;;;15.73;63.69;102074.00;4971479;28;20053;-63
2021/11/11 10:45:11;;;;;;;19.40;11.13;;;;;;;15.63;63.34;102060.44;4970486;28;20482;-61
2021/11/11 10:47:39;;;;;;;16.67;10.55;;;;;;;15.59;63.62;102058.91;4971549;28;20051;-63
2021/11/11 10:50:14;;;;;;;15.02;9.77;;;;;;;15.58;63.40;102054.56;4971346;28;20484;-61
2021/11/11 10:52:49;;;;;;;17.23;9.95;;;;;;;15.58;63.41;102057.19;4971326;28;20062;-61
2021/11/11 10:55:29;;;;;;;16.42;11.35;;;;;;;15.57;63.42;102063.47;4971177;28;20101;-61
2021/11/11 10:58:11;;;;;;;19.98;10.48;;;;;;;15.58;63.15;102060.72;4971228;28;20567;-61
2021/11/11 11:00:38;;;;;;;14.38;9.52;;;;;;;15.59;62.97;102051.84;4971392;28;20046;-62
2021/11/11 11:03:13;;;;;;;15.80;9.82;;;;;;;15.60;62.40;102053.53;4970251;28;20487;-62
2021/11/11 11:05:47;;;;;;;15.40;9.40;;;;;;;15.58;62.43;102057.19;4957940;28;20599;-61
2021/11/11 11:08:26;;;;;;;14.77;9.27;;;;;;;15.55;62.35;102050.28;4970879;28;20042;-62
2021/11/11 11:11:03;;;;;;;18.00;9.40;;;;;;;15.52;61.96;102053.13;4971269;28;20369;-61
2021/11/11 11:13:37;;;;;;;13.13;8.98;;;;;;;15.49;61.92;102055.94;4971142;28;20129;-61
2021/11/11 11:16:09;;;;;;;14.48;9.70;;;;;;;15.48;62.04;102046.31;4971002;28;20046;-62
2021/11/11 11:18:41;;;;;;;14.02;8.50;;;;;;;15.46;61.71;102043.72;4969940;28;20047;-61
2021/11/11 11:21:17;;;;;;;12.68;8.00;;;;;;;15.45;61.30;102042.03;4970732;28;20043;-62
2021/11/11 11:23:50;;;;;;;10.55;6.40;;;;;;;15.42;60.97;102039.56;4970314;28;20051;-61
2021/11/11 11:26:16;;;;;;;15.18;6.78;;;;;;;15.41;61.06;102040.50;4970786;28;20122;-63
2021/11/11 11:28:48;;;;;;;14.93;7.40;;;;;;;15.38;60.80;102040.69;4970732;28;20463;-62
2021/11/11 11:31:29;;;;;;;10.65;6.90;;;;;;;15.37;60.16;102044.25;4970532;28;20105;-61
2021/11/11 11:33:56;;;;;;;11.82;7.30;;;;;;;15.37;59.95;102046.06;4970494;28;20098;-62
2021/11/11 11:36:48;;;;;;;10.93;7.90;;;;;;;15.40;59.83;102037.94;4968754;28;20492;-62
2021/11/11 11:39:29;;;;;;;14.10;7.53;;;;;;;15.41;59.82;102037.84;4969275;28;20113;-61
2021/11/11 11:42:05;;;;;;;13.85;7.55;;;;;;;15.41;59.93;102037.00;4970533;28;20057;-61
2021/11/11 11:45:06;;;;;;;15.23;8.88;;;;;;;15.43;60.00;102032.50;4970294;28;20537;-62
2021/11/11 11:47:43;;;;;;;13.13;7.38;;;;;;;15.45;59.87;102030.59;4961965;28;20097;-61
2021/11/11 11:50:17;;;;;;;19.58;9.38;;;;;;;15.45;60.10;102026.16;4965152;28;20047;-62
2021/11/11 11:52:49;;;;;;;15.70;8.88;;;;;;;15.50;59.93;102025.88;4962702;28;20062;-61